Time;durP1;ratioP1;P1;durP2;ratioP2;P2;SDS_P1;SDS_P2;PMS_P1;PMS_P2;Temp;Humidity;BMP_temperature;BMP_pressure;BME280_temperature;BME280_humidity;BME280_pressure;Samples;Min_cycle;Max_cycle;Signal;HPM_P1;HPM_P2
2022/06/02 00:00:13;;;;;;;0.90;0.90;;;12.50;84.90;;;;;;4975701;28;20084;-79
2022/06/02 00:02:57;;;;;;;0.77;0.77;;;12.40;85.20;;;;;;5007600;28;20026;-77
2022/06/02 00:05:58;;;;;;;0.82;0.82;;;12.40;86.10;;;;;;4995136;28;20566;-77
2022/06/02 00:08:24;;;;;;;1.00;0.82;;;12.30;86.10;;;;;;5012585;28;20388;-78
2022/06/02 00:11:11;;;;;;;0.70;0.70;;;12.20;86.10;;;;;;5007408;28;20031;-79
2022/06/02 00:14:13;;;;;;;0.80;0.80;;;12.20;87.10;;;;;;5004159;28;20030;-79
2022/06/02 00:17:04;;;;;;;1.40;0.85;;;12.10;87.20;;;;;;4988759;28;20040;-78
2022/06/02 00:19:46;;;;;;;1.33;1.23;;;12.00;88.00;;;;;;5014802;28;20033;-77
2022/06/02 00:22:24;;;;;;;0.70;0.70;;;11.90;88.20;;;;;;5013073;28;20443;-78
2022/06/02 00:25:02;;;;;;;1.23;0.82;;;11.90;88.80;;;;;;5011860;28;20472;-79
2022/06/02 00:27:47;;;;;;;0.77;0.77;;;11.80;89.00;;;;;;4993934;28;20037;-78
2022/06/02 00:30:43;;;;;;;0.80;0.80;;;11.70;89.30;;;;;;5005621;28;20037;-79
2022/06/02 00:33:34;;;;;;;0.70;0.63;;;11.70;89.50;;;;;;5013300;28;20030;-80
2022/06/02 00:36:23;;;;;;;1.60;1.00;;;11.60;90.10;;;;;;4945783;28;20034;-77
2022/06/02 00:38:49;;;;;;;0.70;0.70;;;11.60;90.30;;;;;;5011127;28;20113;-77
2022/06/02 00:41:50;;;;;;;1.38;0.90;;;11.50;90.20;;;;;;4993236;28;20048;-79
2022/06/02 00:44:28;;;;;;;0.70;0.70;;;11.60;90.20;;;;;;4921010;28;20719;-77
2022/06/02 00:47:03;;;;;;;0.98;0.90;;;11.40;90.50;;;;;;4986865;28;20026;-80
2022/06/02 00:49:34;;;;;;;1.13;1.10;;;11.40;90.80;;;;;;4993052;28;20041;-79
2022/06/02 00:52:25;;;;;;;1.08;1.00;;;11.30;91.10;;;;;;5006553;28;20041;-79
2022/06/02 00:58:16;;;;;;;1.73;1.00;;;11.20;91.70;;;;;;5011834;28;20040;-80
2022/06/02 01:00:45;;;;;;;1.13;0.90;;;11.20;92.40;;;;;;5008494;28;20081;-80
2022/06/02 01:03:24;;;;;;;0.80;0.80;;;11.10;92.40;;;;;;4981581;28;20038;-81
2022/06/02 01:06:08;;;;;;;0.73;0.73;;;11.10;92.40;;;;;;5014434;28;20034;-81
2022/06/02 01:08:37;;;;;;;2.25;1.20;;;11.00;92.70;;;;;;5015403;28;20512;-81
2022/06/02 01:11:36;;;;;;;1.45;1.05;;;11.00;93.00;;;;;;4999848;28;20034;-81
2022/06/02 01:14:27;;;;;;;0.80;0.80;;;10.90;93.40;;;;;;4957566;28;20041;-80
2022/06/02 01:17:02;;;;;;;1.10;1.10;;;10.90;93.60;;;;;;4999933;28;20500;-80
2022/06/02 01:19:49;;;;;;;0.90;0.90;;;10.80;94.00;;;;;;5013401;28;20030;-81
2022/06/02 01:22:35;;;;;;;1.83;0.80;;;10.80;94.80;;;;;;4991962;28;20505;-81
2022/06/02 01:25:20;;;;;;;0.80;0.80;;;10.80;95.00;;;;;;4995229;28;20038;-79
2022/06/02 01:28:16;;;;;;;1.00;1.00;;;10.70;95.50;;;;;;4995474;28;20452;-80
2022/06/02 01:31:00;;;;;;;1.43;0.90;;;10.60;95.60;;;;;;5006936;28;20026;-81
2022/06/02 01:33:54;;;;;;;1.00;1.00;;;10.50;96.60;;;;;;5000293;28;20280;-81
2022/06/02 01:36:23;;;;;;;1.33;1.00;;;10.40;97.30;;;;;;5003861;28;20026;-81
2022/06/02 01:39:21;;;;;;;1.42;1.00;;;10.30;97.60;;;;;;4981508;28;20092;-81
2022/06/02 01:42:22;;;;;;;3.50;1.10;;;10.20;97.80;;;;;;4988719;28;20072;-80
2022/06/02 01:44:56;;;;;;;1.45;1.00;;;10.20;98.50;;;;;;4996169;28;20544;-80
2022/06/02 01:47:31;;;;;;;1.60;0.90;;;10.10;98.90;;;;;;5010281;28;20088;-80
2022/06/02 01:50:13;;;;;;;2.58;1.40;;;10.00;99.30;;;;;;4994998;28;20034;-78
2022/06/02 01:52:46;;;;;;;0.90;0.90;;;10.00;99.50;;;;;;4994088;28;20034;-80
2022/06/02 01:55:23;;;;;;;1.30;1.20;;;9.90;99.90;;;;;;5012455;28;20524;-80
2022/06/02 01:58:25;;;;;;;1.10;1.10;;;9.90;99.90;;;;;;4987799;28;20026;-80
2022/06/02 02:01:05;;;;;;;1.30;1.20;;;9.90;99.90;;;;;;4998890;28;20040;-79
2022/06/02 02:04:10;;;;;;;1.60;1.10;;;9.80;99.90;;;;;;5012572;28;20037;-80
2022/06/02 02:06:48;;;;;;;1.25;1.00;;;9.80;99.90;;;;;;4998504;28;20041;-80
2022/06/02 02:09:21;;;;;;;2.30;1.00;;;9.70;99.90;;;;;;4998247;28;20040;-78
2022/06/02 02:11:53;;;;;;;1.00;1.00;;;9.70;99.90;;;;;;5010516;28;20140;-81
2022/06/02 02:14:27;;;;;;;1.58;1.10;;;9.60;99.90;;;;;;5001425;28;20049;-81
2022/06/02 02:17:21;;;;;;;1.40;1.30;;;9.60;99.90;;;;;;5018620;28;20132;-80
2022/06/02 02:19:58;;;;;;;1.23;1.13;;;9.60;99.90;;;;;;5014155;28;20053;-79
2022/06/02 02:22:47;;;;;;;1.20;1.10;;;9.60;99.90;;;;;;4998789;28;20029;-81
2022/06/02 02:25:21;;;;;;;1.10;1.00;;;9.50;99.90;;;;;;5016422;28;20033;-80
2022/06/02 02:28:17;;;;;;;1.10;1.10;;;9.50;99.90;;;;;;5011521;28;20034;-79
2022/06/02 02:30:45;;;;;;;1.10;1.00;;;9.50;99.90;;;;;;5015105;28;20030;-79
2022/06/02 02:33:33;;;;;;;0.90;0.90;;;9.50;99.90;;;;;;5004501;28;20116;-80
2022/06/02 02:36:02;;;;;;;2.03;0.90;;;9.50;99.90;;;;;;4984858;28;20087;-79
2022/06/02 02:39:02;;;;;;;1.30;1.20;;;9.50;99.90;;;;;;4987535;28;20514;-79
2022/06/02 02:41:47;;;;;;;1.20;1.00;;;9.40;99.90;;;;;;5013394;28;20029;-79
2022/06/02 02:44:20;;;;;;;1.08;1.08;;;9.40;99.90;;;;;;5007325;28;20026;-79
2022/06/02 02:47:19;;;;;;;0.90;0.90;;;9.30;99.90;;;;;;5011470;28;20077;-79
2022/06/02 02:49:51;;;;;;;1.33;1.20;;;9.30;99.90;;;;;;5016948;28;20022;-79
2022/06/02 02:52:41;;;;;;;1.55;1.02;;;9.20;99.90;;;;;;5012467;28;20068;-79
2022/06/02 02:55:24;;;;;;;0.80;0.80;;;9.20;99.90;;;;;;5012873;28;20033;-80
2022/06/02 02:58:16;;;;;;;1.80;1.05;;;9.10;99.90;;;;;;5005676;28;20540;-79
2022/06/02 03:00:46;;;;;;;1.20;1.10;;;9.10;99.90;;;;;;5011392;28;20022;-81
2022/06/02 03:03:31;;;;;;;1.23;1.10;;;9.00;99.90;;;;;;4996486;28;20054;-81
2022/06/02 03:06:14;;;;;;;2.03;1.30;;;9.00;99.90;;;;;;5016804;28;20057;-81
2022/06/02 03:08:51;;;;;;;0.95;0.95;;;9.00;99.90;;;;;;5015242;28;20077;-81
2022/06/02 03:11:54;;;;;;;0.85;0.85;;;9.00;99.90;;;;;;5002231;28;20026;-81
2022/06/02 03:14:35;;;;;;;1.38;1.17;;;8.90;99.90;;;;;;5000401;28;20051;-80
2022/06/02 03:17:33;;;;;;;1.25;1.15;;;8.90;99.90;;;;;;4981631;28;20030;-78
2022/06/02 03:20:17;;;;;;;1.42;1.33;;;8.90;99.90;;;;;;5008364;28;20041;-80
2022/06/02 03:23:11;;;;;;;1.05;0.98;;;8.90;99.90;;;;;;5012416;28;20052;-78
2022/06/02 03:25:49;;;;;;;1.15;1.08;;;8.90;99.90;;;;;;5009176;28;20021;-80
2022/06/02 03:28:20;;;;;;;1.45;1.27;;;8.90;99.90;;;;;;5011992;28;20029;-78
2022/06/02 03:30:56;;;;;;;1.15;1.08;;;8.90;99.90;;;;;;5005944;28;20037;-79
2022/06/02 03:33:48;;;;;;;1.13;1.13;;;8.80;99.90;;;;;;5024373;28;20049;-79
2022/06/02 03:36:39;;;;;;;1.30;1.20;;;8.90;99.90;;;;;;5003699;28;20023;-79
2022/06/02 03:39:16;;;;;;;1.17;1.10;;;8.90;99.90;;;;;;4995983;28;20034;-81
2022/06/02 03:42:04;;;;;;;1.10;1.10;;;8.90;99.90;;;;;;4995337;28;20117;-78
2022/06/02 03:44:52;;;;;;;1.10;1.10;;;8.90;99.90;;;;;;5013491;28;20026;-78
2022/06/02 03:47:35;;;;;;;1.40;1.30;;;8.90;99.90;;;;;;4989635;28;20378;-80
2022/06/02 03:50:24;;;;;;;1.55;1.45;;;8.90;99.90;;;;;;5007890;28;20482;-79
2022/06/02 03:53:04;;;;;;;2.05;1.48;;;8.90;99.90;;;;;;5012410;28;20049;-78
2022/06/02 03:55:45;;;;;;;1.40;1.30;;;8.90;99.90;;;;;;5007839;28;20073;-80
2022/06/02 03:58:26;;;;;;;1.20;1.13;;;8.90;99.90;;;;;;5014918;28;20037;-79
2022/06/02 04:01:01;;;;;;;1.40;1.23;;;8.90;99.90;;;;;;5005902;28;20493;-80
2022/06/02 04:03:54;;;;;;;1.25;1.15;;;8.90;99.90;;;;;;4992845;28;20040;-78
2022/06/02 04:06:36;;;;;;;1.42;1.33;;;8.90;99.90;;;;;;4981483;28;20709;-78
2022/06/02 04:09:10;;;;;;;1.80;1.58;;;9.00;99.90;;;;;;5003325;28;20030;-79
2022/06/02 04:15:03;;;;;;;1.40;1.30;;;8.90;99.90;;;;;;4992025;28;20045;-80
2022/06/02 04:17:42;;;;;;;1.77;1.50;;;9.00;99.90;;;;;;5013583;28;20034;-81
2022/06/02 04:20:35;;;;;;;1.55;1.45;;;9.10;99.90;;;;;;5014307;28;20080;-81
2022/06/02 04:23:36;;;;;;;1.48;1.38;;;9.20;99.90;;;;;;4997025;28;20034;-78
2022/06/02 04:26:37;;;;;;;1.45;1.35;;;9.30;99.90;;;;;;5008868;28;20045;-78
2022/06/02 04:29:36;;;;;;;1.50;1.40;;;9.40;99.90;;;;;;4908778;29;20710;-79
2022/06/02 04:32:30;;;;;;;4.88;1.48;;;9.50;99.90;;;;;;5009674;28;20429;-80
2022/06/02 04:35:18;;;;;;;1.92;1.60;;;9.60;99.90;;;;;;4993608;28;20033;-80
2022/06/02 04:38:16;;;;;;;1.75;1.60;;;9.70;99.90;;;;;;4997683;28;20022;-79
2022/06/02 04:41:15;;;;;;;1.30;1.20;;;9.70;99.90;;;;;;5001915;28;20370;-78
2022/06/02 04:44:24;;;;;;;1.63;1.52;;;9.80;99.90;;;;;;4987715;28;20504;-78
2022/06/02 04:46:59;;;;;;;1.73;1.30;;;9.80;99.90;;;;;;5008457;28;20025;-81
2022/06/02 04:49:50;;;;;;;2.63;1.50;;;9.80;99.90;;;;;;5004465;28;20038;-81
2022/06/02 04:52:41;;;;;;;1.65;1.55;;;9.80;99.90;;;;;;5000550;28;20058;-79
2022/06/02 04:55:47;;;;;;;1.67;1.58;;;9.90;99.90;;;;;;4997161;28;20067;-80
2022/06/02 04:58:56;;;;;;;1.40;1.30;;;9.90;99.90;;;;;;5011556;28;20018;-81
2022/06/02 05:01:40;;;;;;;1.35;1.25;;;10.00;99.90;;;;;;5014905;28;20052;-80
2022/06/02 05:04:31;;;;;;;1.45;1.35;;;10.00;99.90;;;;;;5014405;28;20412;-81
2022/06/02 05:07:21;;;;;;;1.20;1.10;;;10.00;99.90;;;;;;5008565;28;20049;-81
2022/06/02 05:10:25;;;;;;;1.50;1.40;;;10.10;99.90;;;;;;5010675;28;20046;-80
2022/06/02 05:13:12;;;;;;;1.40;1.05;;;10.20;99.90;;;;;;5000033;28;20026;-80
2022/06/02 05:16:06;;;;;;;1.38;1.27;;;10.30;99.90;;;;;;4981469;28;20044;-81
2022/06/02 05:19:06;;;;;;;1.33;1.20;;;10.40;99.90;;;;;;5013712;28;20033;-81
2022/06/02 05:22:10;;;;;;;1.77;1.15;;;10.50;99.90;;;;;;5000373;28;20097;-81
2022/06/02 05:24:57;;;;;;;1.48;1.38;;;10.70;99.90;;;;;;5007186;28;20026;-80
2022/06/02 05:27:41;;;;;;;2.67;1.45;;;10.80;99.90;;;;;;4995352;28;20480;-80
2022/06/02 05:30:16;;;;;;;1.50;1.40;;;11.20;99.90;;;;;;4996005;28;20061;-80
2022/06/02 05:32:48;;;;;;;2.87;1.47;;;11.80;99.90;;;;;;5006658;28;20047;-80
2022/06/02 05:35:22;;;;;;;1.10;1.00;;;12.30;99.90;;;;;;4985210;28;20033;-80
2022/06/02 05:38:14;;;;;;;1.43;1.30;;;12.90;99.90;;;;;;5025202;28;20045;-80
2022/06/02 05:40:53;;;;;;;1.65;1.40;;;13.60;99.90;;;;;;5025217;28;20022;-80
2022/06/02 05:43:21;;;;;;;0.98;0.98;;;14.10;99.90;;;;;;5009760;28;20037;-80
2022/06/02 05:46:10;;;;;;;1.25;1.15;;;14.60;99.90;;;;;;5013906;28;20538;-80
2022/06/02 05:48:58;;;;;;;1.25;1.10;;;15.10;99.90;;;;;;5019519;28;20114;-80
2022/06/02 05:51:36;;;;;;;1.90;1.13;;;15.70;98.80;;;;;;5012542;28;20044;-81
2022/06/02 05:54:05;;;;;;;1.67;1.00;;;16.10;95.60;;;;;;5027504;28;20476;-80
2022/06/02 05:56:46;;;;;;;1.00;1.00;;;16.50;95.00;;;;;;5003325;28;20025;-79
2022/06/02 05:59:30;;;;;;;1.33;1.23;;;16.80;93.30;;;;;;4994947;28;20388;-80
2022/06/02 06:02:17;;;;;;;1.75;1.20;;;17.30;91.80;;;;;;4999592;28;20061;-80
2022/06/02 06:05:21;;;;;;;1.35;0.90;;;17.70;90.80;;;;;;4992755;28;20124;-80
2022/06/02 06:08:08;;;;;;;1.67;0.88;;;18.20;87.90;;;;;;5009093;28;20026;-79
2022/06/02 06:10:55;;;;;;;1.20;1.10;;;18.60;83.50;;;;;;4985482;28;20389;-79
2022/06/02 06:13:54;;;;;;;0.82;0.82;;;19.00;81.30;;;;;;5008856;28;20153;-77
2022/06/02 06:16:54;;;;;;;1.40;1.00;;;19.20;78.30;;;;;;4991318;28;20116;-79
2022/06/02 06:19:48;;;;;;;0.90;0.90;;;19.60;75.40;;;;;;5010727;28;20095;-80
2022/06/02 06:22:44;;;;;;;1.33;0.73;;;19.90;74.20;;;;;;5014793;28;20095;-80
2022/06/02 06:25:12;;;;;;;;;;;20.20;70.30;;;;;;4990310;28;20037;-79
2022/06/02 06:27:57;;;;;;;1.08;0.98;;;20.40;69.40;;;;;;5014199;28;20638;-80
2022/06/02 06:31:01;;;;;;;2.20;2.00;;;20.70;64.60;;;;;;5015026;28;20445;-81
2022/06/02 06:33:45;;;;;;;1.02;0.95;;;20.80;60.90;;;;;;4995446;28;20509;-79
2022/06/02 06:36:26;;;;;;;0.82;0.82;;;20.80;59.00;;;;;;5011621;28;20038;-79
2022/06/02 06:38:57;;;;;;;1.27;1.05;;;20.60;59.40;;;;;;5013140;28;20038;-79
2022/06/02 06:41:54;;;;;;;1.27;1.00;;;20.70;60.30;;;;;;4996457;28;20109;-79
2022/06/02 06:44:45;;;;;;;1.38;0.90;;;20.70;60.30;;;;;;4995120;28;20383;-78
2022/06/02 06:47:36;;;;;;;1.00;0.90;;;20.80;59.00;;;;;;5006743;28;20038;-76
2022/06/02 06:50:10;;;;;;;1.08;1.00;;;21.00;59.40;;;;;;5018945;28;20029;-80
2022/06/02 06:53:00;;;;;;;0.85;0.85;;;21.20;57.70;;;;;;5008372;28;20488;-79
2022/06/02 06:55:55;;;;;;;1.05;0.80;;;21.30;57.40;;;;;;4986556;28;20561;-80
2022/06/02 06:58:46;;;;;;;0.60;0.60;;;21.50;56.80;;;;;;4984421;28;20038;-77
2022/06/02 07:01:27;;;;;;;0.70;0.70;;;21.70;58.10;;;;;;5005451;28;20743;-78
2022/06/02 07:04:24;;;;;;;0.68;0.68;;;21.80;58.40;;;;;;5007521;28;20026;-78
2022/06/02 07:07:05;;;;;;;1.95;0.98;;;22.20;57.00;;;;;;4968711;28;20049;-80
2022/06/02 07:09:54;;;;;;;1.33;0.70;;;22.40;53.30;;;;;;5002140;28;20405;-79
2022/06/02 07:15:48;;;;;;;1.05;0.75;;;22.70;54.90;;;;;;5018055;28;20025;-79
2022/06/02 07:18:16;;;;;;;1.25;0.70;;;22.80;54.00;;;;;;5000242;28;20473;-79
2022/06/02 07:20:51;;;;;;;0.88;0.80;;;22.90;50.70;;;;;;4994161;28;20128;-77
2022/06/02 07:23:22;;;;;;;0.82;0.80;;;23.00;50.40;;;;;;4983696;28;20029;-79
2022/06/02 07:26:24;;;;;;;0.80;0.80;;;23.10;50.90;;;;;;5008759;28;20758;-78
2022/06/02 07:29:39;;;;;;;1.15;0.80;;;23.10;50.00;;;;;;5007658;28;20030;-80
2022/06/02 07:32:21;;;;;;;0.60;0.60;;;23.10;49.30;;;;;;5014026;28;21353;-79
2022/06/02 07:35:13;;;;;;;1.10;0.60;;;23.20;49.10;;;;;;5010077;28;20034;-79
2022/06/02 07:37:58;;;;;;;0.73;0.70;;;23.40;49.90;;;;;;5017192;28;20443;-78
2022/06/02 07:40:49;;;;;;;1.80;0.70;;;23.60;49.70;;;;;;5005063;28;20054;-81
2022/06/02 07:43:30;;;;;;;1.95;0.32;;;23.80;49.90;;;;;;5009746;28;20034;-79
2022/06/02 07:46:11;;;;;;;0.60;0.60;;;24.00;50.00;;;;;;5012103;28;20026;-79
2022/06/02 07:48:55;;;;;;;1.35;0.63;;;24.20;48.30;;;;;;4993557;28;20034;-79
2022/06/02 07:51:37;;;;;;;1.58;0.80;;;24.20;47.00;;;;;;4982345;28;20034;-79
2022/06/02 07:54:16;;;;;;;0.60;0.60;;;24.10;46.40;;;;;;5011214;28;20030;-79
2022/06/02 07:56:54;;;;;;;0.60;0.60;;;23.90;47.60;;;;;;4986955;28;20038;-79
2022/06/02 07:59:48;;;;;;;0.90;0.57;;;23.70;49.30;;;;;;5011127;28;20021;-79
2022/06/02 08:02:47;;;;;;;1.02;0.82;;;23.60;48.50;;;;;;4991564;28;20037;-80
2022/06/02 08:05:38;;;;;;;0.80;0.80;;;23.40;48.90;;;;;;4981055;28;20062;-79
2022/06/02 08:08:19;;;;;;;0.90;0.80;;;22.90;47.90;;;;;;5010298;28;20049;-79
2022/06/02 08:11:09;;;;;;;0.55;0.55;;;22.70;49.90;;;;;;5008454;28;20034;-82
2022/06/02 08:13:53;;;;;;;0.70;0.70;;;22.40;51.00;;;;;;5011183;28;20512;-81
2022/06/02 08:16:24;;;;;;;1.50;0.90;;;22.30;52.10;;;;;;5003079;28;20120;-82
2022/06/02 08:18:59;;;;;;;0.88;0.82;;;22.10;51.40;;;;;;5015099;28;20089;-82
2022/06/02 08:21:28;;;;;;;1.67;0.77;;;21.90;51.90;;;;;;5013928;28;20062;-81
2022/06/02 08:23:57;;;;;;;0.60;0.60;;;21.80;51.40;;;;;;5014080;28;20033;-81
2022/06/02 08:26:42;;;;;;;1.48;0.80;;;21.70;51.10;;;;;;5012509;28;20026;-81
2022/06/02 08:29:11;;;;;;;;;;;21.50;51.90;;;;;;4951630;28;20073;-82
2022/06/02 08:31:49;;;;;;;0.60;0.60;;;21.30;52.70;;;;;;4985350;28;19952;-82
2022/06/02 08:34:25;;;;;;;0.55;0.55;;;21.20;52.50;;;;;;5004498;28;20164;-82
2022/06/02 08:37:03;;;;;;;1.30;0.70;;;21.20;52.20;;;;;;5013883;28;20069;-81
2022/06/02 08:40:00;;;;;;;1.23;0.90;;;21.10;53.60;;;;;;5013070;28;20083;-81
2022/06/02 08:42:48;;;;;;;1.05;0.65;;;20.90;52.00;;;;;;4993888;28;20053;-80
2022/06/02 08:45:31;;;;;;;1.48;0.90;;;20.60;53.00;;;;;;4977373;28;20026;-81
2022/06/02 08:48:12;;;;;;;0.70;0.70;;;20.60;52.90;;;;;;5010436;28;20122;-81
2022/06/02 08:51:03;;;;;;;1.10;0.50;;;20.50;51.70;;;;;;4993955;28;20030;-82
2022/06/02 08:53:47;;;;;;;0.80;0.80;;;20.30;54.10;;;;;;4977156;28;20038;-81
2022/06/02 08:56:50;;;;;;;0.57;0.57;;;20.20;53.80;;;;;;4981798;28;20049;-81
2022/06/02 08:59:43;;;;;;;0.63;0.63;;;20.10;51.30;;;;;;5009675;28;20061;-83
2022/06/02 09:02:40;;;;;;;0.50;0.50;;;20.10;53.00;;;;;;5009070;28;20034;-80
2022/06/02 09:05:21;;;;;;;0.60;0.60;;;20.20;52.70;;;;;;5013748;28;20050;-79
2022/06/02 09:08:23;;;;;;;0.40;0.40;;;20.30;52.40;;;;;;4994695;28;20057;-80
2022/06/02 09:11:18;;;;;;;0.70;0.70;;;20.30;53.10;;;;;;4962133;28;20516;-81
2022/06/02 09:14:28;;;;;;;0.55;0.50;;;20.30;52.00;;;;;;4977899;28;20038;-81
2022/06/02 09:17:07;;;;;;;1.75;0.68;;;20.10;55.30;;;;;;4992254;28;20041;-81
2022/06/02 09:19:46;;;;;;;0.60;0.60;;;20.20;54.90;;;;;;5023729;28;20496;-81
2022/06/02 09:22:12;;;;;;;0.50;0.50;;;20.20;55.50;;;;;;5006048;28;20040;-81
2022/06/02 09:25:07;;;;;;;0.50;0.50;;;20.30;56.60;;;;;;5000284;28;20496;-81
2022/06/02 09:27:52;;;;;;;0.50;0.50;;;20.30;55.70;;;;;;5019412;28;20386;-81
2022/06/02 09:30:25;;;;;;;0.40;0.40;;;20.20;53.60;;;;;;4999147;28;20029;-81
2022/06/02 09:36:26;;;;;;;0.47;0.47;;;20.10;53.90;;;;;;5009419;28;20030;-79
2022/06/02 09:38:57;;;;;;;0.30;0.30;;;20.00;51.60;;;;;;5005585;28;20045;-79
2022/06/02 09:41:41;;;;;;;0.35;0.35;;;20.00;52.10;;;;;;4997134;28;20535;-80
2022/06/02 09:44:13;;;;;;;0.30;0.30;;;19.90;52.10;;;;;;4977924;28;20034;-79
2022/06/02 09:47:21;;;;;;;0.30;0.30;;;19.90;51.80;;;;;;5000338;28;20052;-81
2022/06/02 09:50:13;;;;;;;0.50;0.50;;;19.90;52.00;;;;;;5008779;28;20038;-80
2022/06/02 09:52:59;;;;;;;1.15;0.50;;;19.80;52.40;;;;;;4995138;28;20037;-80
2022/06/02 09:55:28;;;;;;;0.60;0.45;;;19.90;53.80;;;;;;5013151;28;20034;-80
2022/06/02 09:58:21;;;;;;;0.55;0.45;;;19.80;53.10;;;;;;4994988;28;20057;-80
2022/06/02 10:01:05;;;;;;;0.57;0.43;;;19.80;53.20;;;;;;5014269;28;20057;-79
2022/06/02 10:04:00;;;;;;;0.30;0.30;;;19.90;56.40;;;;;;5013296;28;20022;-79
2022/06/02 10:06:30;;;;;;;0.30;0.30;;;20.00;57.00;;;;;;5003989;28;20030;-80
2022/06/02 10:09:09;;;;;;;0.40;0.40;;;20.20;57.60;;;;;;4997225;28;20103;-80
2022/06/02 10:15:34;;;;;;;1.50;0.55;;;20.30;52.70;;;;;;5008708;28;20033;-79
2022/06/02 10:18:25;;;;;;;1.00;0.43;;;20.30;52.10;;;;;;4998190;28;20033;-79
2022/06/02 10:21:32;;;;;;;1.55;0.43;;;20.30;51.80;;;;;;5008776;28;20032;-80
2022/06/02 10:24:28;;;;;;;1.70;0.50;;;20.40;52.90;;;;;;4967282;28;20510;-80
2022/06/02 10:27:47;;;;;;;2.95;0.60;;;20.20;47.70;;;;;;4953946;28;20111;-80
2022/06/02 10:30:35;;;;;;;0.43;0.43;;;20.10;51.90;;;;;;4994002;28;20034;-79
2022/06/02 10:33:16;;;;;;;0.40;0.40;;;20.10;56.10;;;;;;4987570;28;20037;-80
2022/06/02 10:36:03;;;;;;;0.60;0.60;;;20.20;52.70;;;;;;5009458;28;20058;-80
2022/06/02 10:38:39;;;;;;;0.50;0.50;;;20.30;51.80;;;;;;4953805;28;20048;-80
2022/06/02 10:41:31;;;;;;;1.92;0.63;;;20.10;52.40;;;;;;5000657;28;20029;-81
2022/06/02 10:44:05;;;;;;;0.60;0.60;;;20.20;52.90;;;;;;4994187;28;20061;-81
2022/06/02 10:46:43;;;;;;;1.45;0.75;;;20.30;54.60;;;;;;4983612;28;20038;-79
2022/06/02 10:49:44;;;;;;;0.40;0.40;;;20.40;53.10;;;;;;4994504;28;20042;-80
2022/06/02 10:52:47;;;;;;;0.68;0.50;;;20.50;52.10;;;;;;4985569;28;20061;-78
2022/06/02 10:55:51;;;;;;;0.55;0.55;;;20.50;50.60;;;;;;4992218;28;20495;-80
2022/06/02 10:58:41;;;;;;;1.00;0.40;;;20.40;49.90;;;;;;4994617;28;20026;-79
2022/06/02 11:01:37;;;;;;;0.40;0.40;;;20.50;53.40;;;;;;5005225;28;20032;-80
2022/06/02 11:04:37;;;;;;;0.68;0.40;;;20.60;50.70;;;;;;5008262;28;20420;-78
2022/06/02 11:07:38;;;;;;;0.50;0.50;;;20.50;53.20;;;;;;5008036;28;20038;-79
2022/06/02 11:10:22;;;;;;;2.58;0.70;;;20.40;48.40;;;;;;5012337;28;20022;-79
2022/06/02 11:13:18;;;;;;;0.43;0.43;;;20.40;50.60;;;;;;4999817;28;20041;-80
2022/06/02 11:15:47;;;;;;;0.50;0.50;;;20.40;50.40;;;;;;4990155;28;20026;-81
2022/06/02 11:18:26;;;;;;;0.70;0.40;;;20.40;48.70;;;;;;5005120;28;20627;-81
2022/06/02 11:21:32;;;;;;;0.90;0.90;;;20.40;51.90;;;;;;4991374;28;20057;-79
2022/06/02 11:24:19;;;;;;;0.60;0.60;;;20.40;50.20;;;;;;5003766;28;20496;-79
2022/06/02 11:27:08;;;;;;;0.80;0.80;;;20.60;50.40;;;;;;5004210;28;20058;-80
2022/06/02 11:30:12;;;;;;;0.57;0.57;;;20.70;50.70;;;;;;4982074;28;20041;-77
2022/06/02 11:32:56;;;;;;;0.55;0.50;;;20.90;52.20;;;;;;4971007;28;20700;-79
2022/06/02 11:35:40;;;;;;;1.10;0.43;;;21.10;51.40;;;;;;4986891;28;20037;-78
2022/06/02 11:38:35;;;;;;;0.45;0.45;;;21.10;49.60;;;;;;5007444;28;20400;-79
2022/06/02 11:41:10;;;;;;;0.60;0.60;;;21.40;54.10;;;;;;4932849;28;20066;-78
2022/06/02 11:43:53;;;;;;;0.65;0.65;;;21.60;50.50;;;;;;5006747;28;20042;-80
2022/06/02 11:46:30;;;;;;;0.45;0.45;;;21.90;51.30;;;;;;5006926;28;20546;-81
2022/06/02 11:49:11;;;;;;;0.40;0.40;;;22.10;52.00;;;;;;4975785;28;20030;-78
2022/06/02 11:52:13;;;;;;;0.50;0.40;;;22.40;47.00;;;;;;5012274;28;20715;-79
2022/06/02 11:54:45;;;;;;;0.63;0.38;;;22.40;44.80;;;;;;5016075;28;20033;-79
2022/06/02 11:57:20;;;;;;;0.50;0.45;;;22.20;44.00;;;;;;5004269;28;20469;-78
2022/06/02 11:59:54;;;;;;;1.40;0.50;;;21.90;45.20;;;;;;4968673;28;20112;-80
2022/06/02 12:02:36;;;;;;;0.70;0.60;;;21.70;46.10;;;;;;5008468;28;20172;-77
2022/06/02 12:05:30;;;;;;;0.80;0.50;;;21.50;44.10;;;;;;5001901;28;20065;-80
2022/06/02 12:08:46;;;;;;;0.43;0.43;;;21.30;45.40;;;;;;5005945;28;20450;-79
2022/06/02 12:11:33;;;;;;;0.97;0.40;;;21.40;48.30;;;;;;4933333;29;20516;-80
2022/06/02 12:14:15;;;;;;;0.30;0.30;;;21.60;48.80;;;;;;5003768;28;20072;-79
2022/06/02 12:17:00;;;;;;;2.38;0.50;;;21.70;49.00;;;;;;4987414;28;20095;-79
2022/06/02 12:19:51;;;;;;;1.08;0.60;;;21.90;48.10;;;;;;4990194;28;20034;-79
2022/06/02 12:22:56;;;;;;;0.40;0.40;;;22.20;48.60;;;;;;5008001;28;20104;-77
2022/06/02 12:25:22;;;;;;;0.40;0.40;;;22.50;47.50;;;;;;5002831;28;20088;-78
2022/06/02 12:28:03;;;;;;;0.50;0.50;;;22.70;46.20;;;;;;5004742;28;20030;-79
2022/06/02 12:30:48;;;;;;;0.88;0.50;;;23.00;45.60;;;;;;4983804;28;20569;-79
2022/06/02 12:33:19;;;;;;;0.40;0.40;;;23.20;44.80;;;;;;5006132;28;20563;-79
2022/06/02 12:35:53;;;;;;;0.40;0.40;;;23.20;43.50;;;;;;4985296;28;20022;-79
2022/06/02 12:38:42;;;;;;;1.45;0.50;;;23.30;44.60;;;;;;5003937;28;20492;-81
2022/06/02 12:41:43;;;;;;;0.50;0.47;;;23.30;43.40;;;;;;5008726;28;20021;-80
2022/06/02 12:44:39;;;;;;;0.50;0.50;;;23.20;45.30;;;;;;5006226;28;20021;-78
2022/06/02 12:47:19;;;;;;;0.82;0.40;;;23.00;43.70;;;;;;5000953;28;20176;-78
2022/06/02 12:50:00;;;;;;;0.40;0.40;;;22.90;45.30;;;;;;5008586;28;20208;-79
2022/06/02 12:52:58;;;;;;;0.40;0.40;;;22.90;45.30;;;;;;5001422;28;20095;-77
2022/06/02 12:55:55;;;;;;;0.40;0.40;;;23.10;44.20;;;;;;4920020;28;20137;-78
2022/06/02 12:58:54;;;;;;;0.50;0.50;;;23.20;45.30;;;;;;5005550;28;20095;-78
2022/06/02 13:01:43;;;;;;;0.68;0.68;;;23.20;42.20;;;;;;4979781;28;20484;-78
2022/06/02 13:04:23;;;;;;;1.08;0.73;;;23.50;46.40;;;;;;4983495;28;20113;-79
2022/06/02 13:07:27;;;;;;;0.50;0.50;;;23.60;42.30;;;;;;5004680;28;20030;-78
2022/06/02 13:10:01;;;;;;;0.50;0.50;;;23.30;42.40;;;;;;4974063;28;20018;-77
2022/06/02 13:13:04;;;;;;;1.00;0.55;;;23.10;42.30;;;;;;4997875;28;20611;-77
2022/06/02 13:15:51;;;;;;;0.40;0.40;;;23.00;42.90;;;;;;4978068;28;20072;-79
2022/06/02 13:18:33;;;;;;;0.68;0.60;;;23.00;44.00;;;;;;5009992;28;20119;-79
2022/06/02 13:21:27;;;;;;;0.30;0.30;;;22.90;43.20;;;;;;5000780;28;20030;-78
2022/06/02 13:23:58;;;;;;;0.95;0.40;;;22.80;43.00;;;;;;4967771;28;20037;-79
2022/06/02 13:26:36;;;;;;;5.47;0.70;;;22.80;43.50;;;;;;4988283;28;20523;-78
2022/06/02 13:29:40;;;;;;;1.02;0.55;;;22.80;43.80;;;;;;4965993;28;20038;-77
2022/06/02 13:32:34;;;;;;;0.40;0.40;;;22.70;45.00;;;;;;4977633;28;20065;-77
2022/06/02 13:35:26;;;;;;;0.40;0.40;;;22.50;44.90;;;;;;5005847;28;20030;-80
2022/06/02 13:37:51;;;;;;;0.50;0.50;;;22.50;44.60;;;;;;4967558;28;20481;-80
2022/06/02 13:40:28;;;;;;;1.00;0.50;;;22.50;44.20;;;;;;5005978;28;20116;-79
2022/06/02 13:43:08;;;;;;;0.45;0.40;;;22.50;44.50;;;;;;4995827;28;20030;-81
2022/06/02 13:45:52;;;;;;;0.50;0.50;;;22.60;45.60;;;;;;4990370;28;20554;-79
2022/06/02 13:48:31;;;;;;;0.68;0.50;;;22.60;46.20;;;;;;5014378;28;20022;-78
2022/06/02 13:51:22;;;;;;;0.45;0.45;;;22.70;44.80;;;;;;5007160;28;20060;-77
2022/06/02 13:57:32;;;;;;;0.40;0.40;;;22.60;44.40;;;;;;5009235;28;20029;-78
2022/06/02 14:00:09;;;;;;;0.43;0.43;;;22.60;45.70;;;;;;5016214;28;20083;-79
2022/06/02 14:02:44;;;;;;;0.47;0.47;;;22.50;43.40;;;;;;5012535;28;20029;-79
2022/06/02 14:05:13;;;;;;;0.68;0.40;;;22.30;45.40;;;;;;5001528;28;20034;-78
2022/06/02 14:07:56;;;;;;;1.17;0.40;;;22.30;45.70;;;;;;5021114;28;20373;-79
2022/06/02 14:10:41;;;;;;;0.93;0.70;;;22.20;46.90;;;;;;5010130;28;20959;-77
2022/06/02 14:13:24;;;;;;;0.35;0.35;;;22.20;44.20;;;;;;4995561;28;20100;-78
2022/06/02 14:16:19;;;;;;;0.80;0.60;;;22.10;46.50;;;;;;5012783;28;20060;-77
2022/06/02 14:19:19;;;;;;;0.70;0.40;;;22.10;47.00;;;;;;5017494;28;20403;-77
2022/06/02 14:22:04;;;;;;;0.43;0.43;;;22.10;42.80;;;;;;5017678;28;20488;-76
2022/06/02 14:24:47;;;;;;;0.40;0.40;;;22.00;44.90;;;;;;5006280;28;20038;-79
2022/06/02 14:27:51;;;;;;;0.50;0.50;;;22.00;44.90;;;;;;4992520;28;20057;-79
2022/06/02 14:30:27;;;;;;;0.60;0.47;;;21.90;44.10;;;;;;4987355;28;20029;-79
2022/06/02 14:33:00;;;;;;;0.43;0.40;;;21.70;45.00;;;;;;4983802;28;20041;-78
2022/06/02 14:35:46;;;;;;;1.95;0.50;;;21.60;49.00;;;;;;5003696;28;20034;-78
2022/06/02 14:38:43;;;;;;;0.43;0.43;;;21.50;44.30;;;;;;4993688;28;20029;-80
2022/06/02 14:41:36;;;;;;;0.40;0.40;;;21.40;46.20;;;;;;4994499;28;20051;-78
2022/06/02 14:44:26;;;;;;;0.30;0.30;;;21.40;48.30;;;;;;4984596;28;20057;-78
2022/06/02 14:47:04;;;;;;;0.95;0.60;;;21.40;46.30;;;;;;4980200;28;20188;-81